Time;durP1;ratioP1;P1;durP2;ratioP2;P2;SDS_P1;SDS_P2;PMS_P1;PMS_P2;Temp;Humidity;BMP_temperature;BMP_pressure;BME280_temperature;BME280_humidity;BME280_pressure;Samples;Min_cycle;Max_cycle;Signal;HPM_P1;HPM_P2
2024/03/04 00:01:55;;;;;;;23.25;14.80;;;;;;;12.17;61.48;99190.97;6211844;22;97247;-76
2024/03/04 00:04:20;;;;;;;21.33;14.32;;;;;;;12.11;61.69;99184.28;6184332;22;97044;-76
2024/03/04 00:06:47;;;;;;;26.38;15.90;;;;;;;12.00;62.40;99192.81;6159428;22;96787;-79
2024/03/04 00:09:12;;;;;;;22.00;14.45;;;;;;;12.11;61.97;99189.56;6211234;22;97563;-76
2024/03/04 00:11:38;;;;;;;23.42;14.77;;;;;;;12.08;61.99;99191.53;6159550;22;100666;-76
2024/03/04 00:14:04;;;;;;;20.75;14.27;;;;;;;11.98;62.38;99189.44;6211218;22;96669;-76
2024/03/04 00:16:29;;;;;;;24.52;14.77;;;;;;;11.98;62.23;99191.19;6184569;22;96829;-76
2024/03/04 00:18:57;;;;;;;24.63;16.10;;;;;;;12.00;62.47;99189.31;6210016;22;97250;-76
2024/03/04 00:21:23;;;;;;;22.35;15.55;;;;;;;11.98;62.13;99188.56;6184875;22;97756;-78
2024/03/04 00:23:49;;;;;;;23.67;15.05;;;;;;;11.83;62.48;99185.00;6183634;22;97164;-76
2024/03/04 00:26:14;;;;;;;21.92;14.32;;;;;;;11.92;61.96;99181.03;6185016;22;96686;-76
2024/03/04 00:28:40;;;;;;;22.58;15.27;;;;;;;11.93;62.00;99180.13;6184307;22;97579;-76
2024/03/04 00:31:06;;;;;;;24.05;15.35;;;;;;;11.99;62.28;99188.47;6211928;22;97862;-75
2024/03/04 00:33:32;;;;;;;25.60;15.30;;;;;;;11.85;61.86;99179.66;6211774;22;96629;-77
2024/03/04 00:35:57;;;;;;;24.50;15.23;;;;;;;11.75;62.25;99177.56;6184796;22;97412;-76
2024/03/04 00:38:23;;;;;;;21.30;14.23;;;;;;;11.67;63.03;99176.31;6211231;22;97098;-79
2024/03/04 00:40:49;;;;;;;21.40;15.05;;;;;;;11.67;62.92;99179.78;6211674;22;97849;-76
2024/03/04 00:43:15;;;;;;;25.10;15.65;;;;;;;11.70;62.59;99184.84;6211369;22;97121;-76
2024/03/04 00:45:40;;;;;;;21.88;15.32;;;;;;;11.75;62.78;99192.47;6158348;22;96624;-77
2024/03/04 00:48:06;;;;;;;22.65;15.02;;;;;;;11.81;62.31;99186.88;6211005;22;97222;-78
2024/03/04 00:50:32;;;;;;;25.88;14.55;;;;;;;11.84;62.30;99193.72;6211149;22;97386;-76
2024/03/04 00:52:58;;;;;;;23.50;14.73;;;;;;;11.82;62.55;99190.34;6211742;22;97194;-76
2024/03/04 00:55:25;;;;;;;27.05;15.15;;;;;;;11.90;61.89;99186.41;6208091;22;96664;-76
2024/03/04 00:57:51;;;;;;;24.08;14.77;;;;;;;11.87;62.06;99196.22;6158903;22;100190;-76
2024/03/04 01:00:17;;;;;;;25.58;15.38;;;;;;;11.92;61.68;99197.66;6184021;22;96631;-77
2024/03/04 01:02:44;;;;;;;24.90;14.88;;;;;;;11.82;62.54;99195.63;6185019;22;97320;-76
2024/03/04 01:05:11;;;;;;;24.42;14.18;;;;;;;11.89;62.46;99187.31;6183353;22;97041;-76
2024/03/04 01:07:37;;;;;;;26.83;15.10;;;;;;;11.66;62.55;99191.22;6183433;22;100044;-76
2024/03/04 01:10:04;;;;;;;27.27;15.45;;;;;;;11.61;63.01;99193.28;6210844;22;97208;-76
2024/03/04 01:12:30;;;;;;;22.52;14.85;;;;;;;11.49;63.09;99192.19;6211625;22;97090;-76
2024/03/04 01:14:55;;;;;;;23.75;14.70;;;;;;;11.37;63.46;99173.59;6210101;22;96731;-76
2024/03/04 01:17:21;;;;;;;21.13;14.55;;;;;;;11.40;63.56;99190.03;6183339;22;97490;-79
2024/03/04 01:19:47;;;;;;;24.85;16.15;;;;;;;11.33;63.57;99194.78;6183739;22;97171;-76
2024/03/04 01:22:17;;;;;;;25.63;15.07;;;;;;;11.19;64.45;99189.44;6180079;22;97066;-76
2024/03/04 01:24:49;;;;;;;24.38;15.77;;;;;;;11.13;64.65;99187.16;6180066;22;97198;-76
2024/03/04 01:27:16;;;;;;;22.73;14.50;;;;;;;11.21;64.73;99194.63;6179702;22;97630;-76
2024/03/04 01:29:41;;;;;;;21.02;14.73;;;;;;;11.20;64.14;99190.28;6179852;22;97223;-79
2024/03/04 01:32:09;;;;;;;20.42;14.20;;;;;;;11.07;64.87;99190.09;6181224;22;96634;-77
2024/03/04 01:34:39;;;;;;;30.23;16.98;;;;;;;11.30;64.04;99189.69;6179615;22;96715;-76
2024/03/04 01:37:06;;;;;;;24.02;15.48;;;;;;;11.26;64.23;99193.44;6154444;22;98137;-76
2024/03/04 01:39:33;;;;;;;25.42;15.73;;;;;;;11.22;64.59;99188.44;6179899;22;97338;-77
2024/03/04 01:41:58;;;;;;;23.52;15.00;;;;;;;11.23;64.51;99190.13;6181637;22;96732;-76
2024/03/04 01:44:38;;;;;;;28.83;17.10;;;;;;;11.35;64.02;99188.63;6180795;22;96972;-76
2024/03/04 01:47:17;;;;;;;24.92;14.57;;;;;;;11.54;63.55;99198.00;6181892;22;97416;-76
2024/03/04 01:49:43;;;;;;;26.30;16.25;;;;;;;11.65;62.88;99196.56;6181360;22;97390;-76
2024/03/04 01:52:09;;;;;;;22.88;15.25;;;;;;;11.57;63.31;99191.72;6156424;22;96713;-76
2024/03/04 01:54:35;;;;;;;23.85;14.43;;;;;;;11.55;63.57;99191.00;6155776;22;96780;-76
2024/03/04 01:57:01;;;;;;;28.23;15.15;;;;;;;11.37;63.69;99186.72;6182162;22;97228;-76
2024/03/04 01:59:27;;;;;;;25.83;15.70;;;;;;;11.35;63.85;99194.72;6155761;22;100433;-80
2024/03/04 02:01:52;;;;;;;22.55;15.38;;;;;;;11.15;64.70;99193.19;6156103;22;97067;-76
2024/03/04 02:04:19;;;;;;;26.40;15.60;;;;;;;11.22;64.33;99193.69;6180812;22;97136;-75
2024/03/04 02:06:45;;;;;;;23.77;15.55;;;;;;;11.40;63.92;99197.91;6180842;22;97438;-76
2024/03/04 02:09:12;;;;;;;28.92;17.02;;;;;;;11.13;65.13;99202.06;6180820;22;99329;-76
2024/03/04 02:11:38;;;;;;;31.95;15.88;;;;;;;11.22;64.90;99204.19;6155939;22;97076;-76
2024/03/04 02:14:06;;;;;;;28.60;17.42;;;;;;;10.99;66.27;99200.16;6155853;22;96819;-79
2024/03/04 02:16:32;;;;;;;25.25;17.05;;;;;;;10.90;66.24;99201.50;6182155;22;97489;-80
2024/03/04 02:18:57;;;;;;;28.77;17.52;;;;;;;10.92;66.75;99204.06;6181762;22;97211;-76
2024/03/04 02:21:26;;;;;;;32.13;19.63;;;;;;;11.00;66.71;99204.50;6180726;22;97044;-79
2024/03/04 02:23:51;;;;;;;26.33;18.27;;;;;;;11.06;66.47;99207.66;6135415;22;96790;-76
2024/03/04 02:26:17;;;;;;;28.20;17.83;;;;;;;10.97;67.28;99210.78;6212879;22;97552;-77
2024/03/04 02:28:42;;;;;;;29.88;18.50;;;;;;;10.97;67.10;99205.53;6185704;22;97255;-76
2024/03/04 02:31:10;;;;;;;34.30;20.00;;;;;;;11.11;66.66;99212.63;6213628;22;96598;-76
2024/03/04 02:33:37;;;;;;;29.85;19.25;;;;;;;11.14;66.81;99209.88;6212628;22;96699;-77
2024/03/04 02:36:04;;;;;;;31.42;19.70;;;;;;;10.91;67.18;99211.09;6160630;22;100440;-76
2024/03/04 02:38:31;;;;;;;27.50;19.08;;;;;;;10.83;67.78;99208.88;6186316;22;97606;-76
2024/03/04 02:40:59;;;;;;;31.50;19.92;;;;;;;10.70;68.31;99212.22;6186883;22;96748;-78
2024/03/04 02:43:26;;;;;;;34.70;22.10;;;;;;;10.60;68.74;99211.84;6186702;22;96701;-78
2024/03/04 02:45:52;;;;;;;39.30;20.73;;;;;;;10.62;68.54;99215.25;6212337;22;98037;-76
2024/03/04 02:48:17;;;;;;;31.48;19.77;;;;;;;10.54;68.66;99214.78;6160401;22;97195;-77
2024/03/04 02:50:43;;;;;;;36.05;20.77;;;;;;;10.52;69.13;99221.88;6213260;22;96888;-75
2024/03/04 02:53:09;;;;;;;31.95;20.20;;;;;;;10.45;69.13;99213.47;6186480;22;96918;-79
2024/03/04 02:55:37;;;;;;;31.65;22.13;;;;;;;10.55;68.87;99222.56;6185192;22;97905;-75
2024/03/04 02:58:03;;;;;;;32.50;21.65;;;;;;;10.39;69.71;99219.03;6212943;22;97298;-76
2024/03/04 03:00:29;;;;;;;29.55;19.60;;;;;;;10.42;69.57;99221.50;6185997;22;96822;-75
2024/03/04 03:02:56;;;;;;;29.55;20.45;;;;;;;10.78;68.20;99229.25;6161065;22;96800;-79
2024/03/04 03:05:21;;;;;;;31.73;21.05;;;;;;;10.74;68.40;99224.25;6183674;22;100423;-76
2024/03/04 03:07:47;;;;;;;32.53;21.85;;;;;;;10.45;69.31;99223.13;6211899;22;97264;-80
2024/03/04 03:10:12;;;;;;;34.30;21.33;;;;;;;10.49;69.33;99222.88;6184399;22;97064;-76
2024/03/04 03:12:38;;;;;;;34.20;21.90;;;;;;;10.33;69.76;99212.34;6160984;22;97141;-76
2024/03/04 03:15:06;;;;;;;32.25;22.15;;;;;;;10.15;69.66;99194.84;6212291;22;97506;-77
2024/03/04 03:17:31;;;;;;;31.38;21.08;;;;;;;10.43;69.51;99216.16;6186270;22;97735;-75
2024/03/04 03:19:57;;;;;;;33.22;22.58;;;;;;;10.38;69.76;99220.81;6186317;22;96723;-79
2024/03/04 03:22:22;;;;;;;36.95;22.25;;;;;;;10.21;70.39;99220.78;6213088;22;96756;-77
2024/03/04 03:24:49;;;;;;;33.55;21.77;;;;;;;10.15;70.36;99223.69;6185429;22;98808;-76
2024/03/04 03:27:15;;;;;;;36.45;21.88;;;;;;;10.18;70.26;99218.28;6159400;22;100285;-76
2024/03/04 03:29:40;;;;;;;41.00;23.83;;;;;;;10.20;70.16;99222.53;6211856;22;96810;-76
2024/03/04 03:32:07;;;;;;;32.28;22.02;;;;;;;10.15;70.22;99218.44;6185202;22;96834;-76
2024/03/04 03:34:33;;;;;;;36.88;23.83;;;;;;;9.98;71.27;99220.16;6183778;22;97430;-77
2024/03/04 03:36:58;;;;;;;36.33;23.05;;;;;;;9.89;71.79;99232.84;6185025;22;97219;-77
2024/03/04 03:39:24;;;;;;;32.35;22.83;;;;;;;9.75;72.12;99233.53;6185876;22;96690;-77
2024/03/04 03:41:49;;;;;;;34.08;22.73;;;;;;;9.73;71.89;99227.50;6186142;22;96651;-78
2024/03/04 03:44:15;;;;;;;38.50;23.08;;;;;;;9.83;72.01;99228.75;6184563;22;97342;-77
2024/03/04 03:46:41;;;;;;;36.42;23.65;;;;;;;9.86;71.55;99236.47;6185446;22;97179;-76
2024/03/04 03:49:06;;;;;;;33.13;22.38;;;;;;;9.77;71.87;99226.41;6212601;22;96681;-76
2024/03/04 03:51:32;;;;;;;34.78;23.08;;;;;;;9.72;71.53;99229.28;6213506;22;96690;-76
2024/03/04 03:53:57;;;;;;;34.00;23.60;;;;;;;9.72;71.69;99236.28;6185055;22;97205;-78
2024/03/04 03:56:23;;;;;;;33.58;23.25;;;;;;;9.82;71.73;99232.28;6158500;22;97192;-81
2024/03/04 03:58:51;;;;;;;36.22;23.42;;;;;;;9.67;72.06;99240.88;6212396;22;96604;-77
2024/03/04 04:01:18;;;;;;;31.83;21.13;;;;;;;9.65;71.74;99232.25;6159944;22;96965;-79
2024/03/04 04:03:43;;;;;;;35.20;23.40;;;;;;;9.75;71.77;99239.59;6184589;22;97741;-77
2024/03/04 04:06:09;;;;;;;39.20;22.95;;;;;;;9.62;71.67;99238.47;6160236;22;100418;-77
2024/03/04 04:08:34;;;;;;;37.03;22.58;;;;;;;9.57;72.06;99239.59;6159812;22;97101;-76
2024/03/04 04:11:00;;;;;;;33.65;23.25;;;;;;;9.48;72.42;99241.75;6160173;22;96767;-76
2024/03/04 04:13:29;;;;;;;36.15;23.48;;;;;;;9.40;72.29;99240.41;6158474;22;100443;-76
2024/03/04 04:15:54;;;;;;;35.38;21.80;;;;;;;9.50;72.29;99252.16;6210841;22;100069;-76
2024/03/04 04:18:20;;;;;;;33.92;22.70;;;;;;;9.54;72.33;99240.63;6184726;22;96721;-76
2024/03/04 04:20:49;;;;;;;35.50;22.88;;;;;;;9.38;72.75;99243.09;6185780;22;96956;-76
2024/03/04 04:23:14;;;;;;;34.15;22.83;;;;;;;9.36;72.23;99231.00;6179133;22;97531;-76
2024/03/04 04:25:40;;;;;;;36.05;21.90;;;;;;;9.46;72.70;99237.50;6181670;22;97263;-76
2024/03/04 04:28:05;;;;;;;35.42;23.75;;;;;;;9.42;72.33;99246.41;6181543;22;96875;-76
2024/03/04 04:30:31;;;;;;;32.80;21.90;;;;;;;9.39;72.35;99247.41;6180474;22;97289;-76
2024/03/04 04:32:56;;;;;;;35.10;23.27;;;;;;;9.23;72.45;99239.41;6181534;22;97373;-76
2024/03/04 04:35:22;;;;;;;35.90;21.73;;;;;;;9.25;72.96;99248.06;6181853;22;97320;-76
2024/03/04 04:37:47;;;;;;;34.92;22.98;;;;;;;9.20;73.06;99247.41;6155215;22;97284;-76
2024/03/04 04:40:18;;;;;;;40.55;23.38;;;;;;;9.25;72.86;99241.94;6130901;22;97283;-77
2024/03/04 04:42:43;;;;;;;35.63;22.85;;;;;;;9.08;72.97;99245.34;6154683;22;97390;-77
2024/03/04 04:45:09;;;;;;;38.03;23.08;;;;;;;8.95;73.83;99231.94;6181163;22;96639;-77
2024/03/04 04:47:34;;;;;;;36.75;22.38;;;;;;;8.97;73.16;99231.91;6179143;22;96890;-76
2024/03/04 04:50:01;;;;;;;35.83;24.05;;;;;;;9.08;73.29;99240.13;6180476;22;96634;-76
2024/03/04 04:52:26;;;;;;;34.45;23.75;;;;;;;9.00;72.96;99237.84;6129540;22;100352;-76
2024/03/04 04:54:52;;;;;;;34.00;22.13;;;;;;;9.01;72.90;99236.91;6154883;22;100369;-76
2024/03/04 04:57:19;;;;;;;34.83;23.60;;;;;;;8.86;73.72;99234.13;6154477;22;97308;-77
2024/03/04 04:59:45;;;;;;;32.85;23.35;;;;;;;8.95;73.51;99249.41;6180440;22;96713;-76
2024/03/04 05:02:11;;;;;;;39.90;24.27;;;;;;;8.85;73.45;99243.75;6179617;22;97251;-76
2024/03/04 05:04:36;;;;;;;34.45;23.00;;;;;;;8.78;74.19;99242.31;6181478;22;97230;-77
2024/03/04 05:07:02;;;;;;;40.10;24.30;;;;;;;8.77;74.22;99257.16;6154344;22;96734;-76
2024/03/04 05:09:27;;;;;;;36.35;24.83;;;;;;;8.70;74.67;99250.50;6180603;22;97238;-77
2024/03/04 05:11:53;;;;;;;35.40;24.02;;;;;;;8.56;74.49;99240.63;6178026;22;97336;-82
2024/03/04 05:14:19;;;;;;;41.03;24.80;;;;;;;8.56;74.75;99247.63;6181093;22;97746;-77
2024/03/04 05:16:44;;;;;;;40.55;24.17;;;;;;;8.49;75.11;99259.25;6180151;22;96849;-76
2024/03/04 05:19:10;;;;;;;43.28;26.02;;;;;;;8.54;74.98;99258.16;6181587;22;96693;-77
2024/03/04 05:21:37;;;;;;;35.03;22.83;;;;;;;8.56;74.52;99250.25;6181983;22;100315;-78
2024/03/04 05:24:03;;;;;;;38.15;23.88;;;;;;;8.58;74.55;99261.47;6210813;22;97196;-76
2024/03/04 05:26:28;;;;;;;35.38;24.23;;;;;;;8.61;74.09;99261.38;6159764;22;96691;-78
2024/03/04 05:28:55;;;;;;;41.65;26.23;;;;;;;8.48;74.48;99268.03;6211415;22;96660;-76
2024/03/04 05:31:21;;;;;;;37.38;24.88;;;;;;;8.48;74.33;99258.41;6182942;22;97406;-76
2024/03/04 05:33:47;;;;;;;35.33;24.25;;;;;;;8.50;74.55;99267.06;6181958;22;97635;-77
2024/03/04 05:36:12;;;;;;;31.85;21.50;;;;;;;8.54;73.97;99265.16;6209211;22;97616;-77
2024/03/04 05:38:38;;;;;;;36.33;23.70;;;;;;;8.65;73.84;99275.16;6183425;22;97526;-77
2024/03/04 05:41:04;;;;;;;41.95;24.50;;;;;;;8.54;73.62;99271.22;6182309;22;97456;-76
2024/03/04 05:43:30;;;;;;;40.13;24.15;;;;;;;8.48;73.56;99270.66;6207248;22;100731;-76
2024/03/04 05:45:56;;;;;;;39.20;23.95;;;;;;;8.63;73.77;99280.44;6183275;22;96665;-80
2024/03/04 05:48:21;;;;;;;42.95;23.63;;;;;;;8.66;73.53;99269.84;6184923;22;96853;-81
2024/03/04 05:50:47;;;;;;;37.33;23.45;;;;;;;8.66;72.82;99269.00;6212810;22;97321;-84
2024/03/04 05:53:12;;;;;;;37.38;23.35;;;;;;;8.71;72.81;99273.13;6213463;22;97462;-85
2024/03/04 05:55:38;;;;;;;35.25;24.17;;;;;;;8.49;73.24;99256.63;6161407;22;97156;-85
2024/03/04 05:58:03;;;;;;;36.25;23.90;;;;;;;8.66;73.15;99263.78;6136290;22;97568;-86
2024/03/04 06:00:32;;;;;;;36.47;22.70;;;;;;;8.87;72.49;99285.53;6134910;22;100142;-78
2024/03/04 06:02:58;;;;;;;39.80;24.13;;;;;;;8.75;71.93;99289.53;6213037;22;97185;-80
2024/03/04 06:05:23;;;;;;;43.75;26.30;;;;;;;8.52;73.05;99288.78;6185021;22;97441;-85
2024/03/04 06:07:49;;;;;;;39.00;24.70;;;;;;;8.35;73.34;99275.50;6185815;22;96984;-88
2024/03/04 06:10:15;;;;;;;44.63;26.52;;;;;;;8.61;72.81;99298.00;6184974;22;97287;-84
2024/03/04 06:12:41;;;;;;;38.78;25.48;;;;;;;8.80;72.84;99301.50;6185583;22;97809;-84
2024/03/04 06:15:07;;;;;;;38.50;23.70;;;;;;;8.97;71.96;99300.78;6185538;22;96616;-85
2024/03/04 06:17:33;;;;;;;35.75;24.30;;;;;;;8.98;71.52;99297.25;6161536;22;97059;-87
2024/03/04 06:19:59;;;;;;;37.85;25.13;;;;;;;9.26;70.88;99303.91;6135789;22;100629;-83
2024/03/04 06:22:24;;;;;;;39.42;24.38;;;;;;;9.01;70.59;99280.56;6138682;22;100445;-82
2024/03/04 06:24:50;;;;;;;39.45;24.48;;;;;;;9.14;70.97;99305.28;6127090;22;97211;-79
2024/03/04 06:27:16;;;;;;;37.58;23.73;;;;;;;9.32;70.73;99295.75;6178710;22;97226;-80
2024/03/04 06:29:41;;;;;;;38.45;24.90;;;;;;;9.50;69.41;99302.78;6179064;22;97621;-85
2024/03/04 06:32:07;;;;;;;35.38;23.48;;;;;;;9.85;68.80;99305.53;6181181;22;97329;-79
2024/03/04 06:34:32;;;;;;;39.13;23.75;;;;;;;9.97;68.15;99291.84;6151579;22;97297;-81
2024/03/04 06:36:58;;;;;;;37.80;26.20;;;;;;;10.11;67.26;99300.81;6154597;22;97155;-79
2024/03/04 06:39:24;;;;;;;38.83;25.33;;;;;;;10.18;67.50;99304.84;6178830;22;98068;-85
2024/03/04 06:41:50;;;;;;;38.30;24.85;;;;;;;10.02;67.27;99301.28;6154523;22;97568;-79
2024/03/04 06:44:16;;;;;;;37.90;24.75;;;;;;;10.15;66.65;99308.47;6103815;22;96684;-82
2024/03/04 06:46:43;;;;;;;37.95;24.17;;;;;;;10.43;66.23;99304.53;6153727;22;96880;-80
2024/03/04 06:49:08;;;;;;;39.60;24.17;;;;;;;10.71;65.89;99304.00;6153448;22;97764;-80
2024/03/04 06:51:37;;;;;;;35.75;24.08;;;;;;;10.58;65.00;99303.75;6104105;22;100157;-79
2024/03/04 06:54:06;;;;;;;37.40;23.67;;;;;;;10.99;64.50;99306.03;6154683;22;97170;-80
2024/03/04 06:56:32;;;;;;;38.65;26.00;;;;;;;10.79;64.17;99307.09;6154652;22;96795;-79
2024/03/04 06:58:58;;;;;;;40.25;25.83;;;;;;;10.86;64.35;99294.50;6154395;22;97915;-78
2024/03/04 07:01:24;;;;;;;39.08;25.15;;;;;;;10.95;63.51;99312.41;6154045;22;97184;-82
2024/03/04 07:03:49;;;;;;;46.17;24.63;;;;;;;11.14;63.74;99308.81;6154857;22;96998;-80
2024/03/04 07:06:15;;;;;;;41.30;24.73;;;;;;;11.59;62.73;99312.56;6154472;22;96678;-78
2024/03/04 07:08:41;;;;;;;40.22;24.27;;;;;;;11.60;61.80;99315.09;6181762;22;97882;-79
2024/03/04 07:11:08;;;;;;;38.72;24.35;;;;;;;11.51;61.85;99313.81;6180786;22;97386;-75
2024/03/04 07:13:34;;;;;;;38.33;23.02;;;;;;;11.85;61.66;99314.66;6180604;22;96930;-81
2024/03/04 07:15:59;;;;;;;37.95;23.52;;;;;;;11.69;60.98;99311.13;6153639;22;96813;-83
2024/03/04 07:18:31;;;;;;;37.33;23.10;;;;;;;11.92;60.10;99321.25;6180553;22;97871;-81
2024/03/04 07:20:57;;;;;;;34.15;23.40;;;;;;;12.16;60.24;99323.47;6181655;22;97562;-82
2024/03/04 07:23:22;;;;;;;40.15;23.15;;;;;;;12.17;60.31;99320.75;6148477;22;96742;-81
2024/03/04 07:25:48;;;;;;;38.20;25.40;;;;;;;12.16;59.58;99318.22;6150567;22;97285;-82
2024/03/04 07:28:14;;;;;;;38.00;24.42;;;;;;;12.49;59.34;99328.59;6153998;22;97406;-81
2024/03/04 07:30:39;;;;;;;42.83;23.65;;;;;;;12.73;58.79;99334.19;6152956;22;100496;-82
2024/03/04 07:33:08;;;;;;;40.15;23.23;;;;;;;13.11;58.32;99326.66;6180068;22;96624;-81
2024/03/04 07:35:34;;;;;;;35.63;23.50;;;;;;;13.31;56.52;99332.56;6154104;22;97294;-82
2024/03/04 07:38:00;;;;;;;39.45;22.67;;;;;;;13.63;56.58;99332.34;6128266;22;97393;-79
2024/03/04 07:40:25;;;;;;;37.83;23.23;;;;;;;13.86;55.81;99333.56;6154866;22;97855;-88
2024/03/04 07:42:51;;;;;;;37.58;23.70;;;;;;;14.53;54.83;99331.03;6154311;22;96761;-92
2024/03/04 07:45:17;;;;;;;41.67;24.00;;;;;;;14.89;53.94;99331.22;6153908;22;97519;-89
2024/03/04 07:47:42;;;;;;;35.80;23.33;;;;;;;15.00;52.95;99313.78;6130724;22;98525;-87
2024/03/04 07:50:08;;;;;;;41.17;26.20;;;;;;;15.45;52.20;99340.66;6130008;22;99031;-95
2024/03/04 07:52:34;;;;;;;44.05;25.20;;;;;;;15.71;51.36;99328.28;6156491;22;96669;-90
2024/03/04 07:54:59;;;;;;;41.63;24.30;;;;;;;16.25;49.86;99336.69;6130678;22;96641;-89
2024/03/04 07:57:25;;;;;;;36.00;23.38;;;;;;;16.59;48.72;99328.06;6181765;22;97560;-88
2024/03/04 07:59:50;;;;;;;40.78;23.17;;;;;;;16.53;48.87;99342.59;6110605;22;100158;-91
2024/03/04 08:02:16;;;;;;;38.10;23.73;;;;;;;16.79;48.45;99334.56;6156473;22;97097;-92
2024/03/04 08:04:45;;;;;;;38.20;22.75;;;;;;;16.94;47.57;99296.28;6154176;22;97228;-89
2024/03/04 08:07:12;;;;;;;39.03;23.85;;;;;;;16.92;47.98;99346.75;6130518;22;99151;-90
2024/03/04 08:09:38;;;;;;;42.85;24.73;;;;;;;16.82;47.90;99353.72;6155059;22;97342;-90
2024/03/04 08:12:05;;;;;;;43.03;24.30;;;;;;;17.08;47.74;99333.19;6131199;22;97258;-90
2024/03/04 08:14:32;;;;;;;36.10;24.23;;;;;;;17.77;46.66;99349.03;6154870;22;97015;-89
2024/03/04 08:16:58;;;;;;;35.60;24.25;;;;;;;17.94;45.98;99345.06;6155155;22;100565;-92
2024/03/04 08:19:23;;;;;;;38.40;24.35;;;;;;;18.03;45.58;99356.75;6153635;22;97720;-85
2024/03/04 08:21:49;;;;;;;35.67;24.50;;;;;;;17.65;45.39;99353.47;6112345;22;96946;-90
2024/03/04 08:24:15;;;;;;;35.70;26.00;;;;;;;17.77;45.41;99346.38;6160364;22;97026;-88
2024/03/04 08:26:40;;;;;;;33.97;23.55;;;;;;;18.07;45.30;99350.25;6159750;22;100486;-91
2024/03/04 08:29:06;;;;;;;37.10;24.33;;;;;;;18.35;44.33;99353.31;6161314;22;97677;-86
2024/03/04 08:31:32;;;;;;;41.17;25.00;;;;;;;18.06;44.62;99348.53;6159943;22;96701;-91
2024/03/04 08:33:58;;;;;;;34.90;24.10;;;;;;;18.28;44.08;99352.97;6161023;22;96753;-89
2024/03/04 08:36:23;;;;;;;41.65;25.33;;;;;;;18.84;43.32;99336.84;6159707;22;100545;-87
2024/03/04 08:38:49;;;;;;;33.60;24.50;;;;;;;19.31;42.59;99331.09;6185894;22;97312;-88
2024/03/04 08:41:16;;;;;;;40.90;24.00;;;;;;;19.37;42.12;99346.53;6135883;22;96681;-86
2024/03/04 08:43:41;;;;;;;36.08;23.25;;;;;;;19.58;41.61;99334.06;6160596;22;97038;-88
2024/03/04 08:46:07;;;;;;;41.20;25.23;;;;;;;19.81;41.65;99315.25;6160231;22;97602;-89
2024/03/04 08:48:33;;;;;;;41.47;24.80;;;;;;;20.58;40.37;99342.06;6159483;22;100095;-90
2024/03/04 08:50:58;;;;;;;35.35;24.50;;;;;;;20.59;39.50;99324.22;6185391;22;97021;-91
2024/03/04 08:53:24;;;;;;;32.83;24.33;;;;;;;21.19;38.89;99327.53;6182094;22;97042;-88
2024/03/04 08:55:50;;;;;;;36.38;25.67;;;;;;;20.77;39.46;99327.91;6183132;22;99461;-87
2024/03/04 08:58:16;;;;;;;39.72;23.98;;;;;;;20.77;39.23;99335.06;6183172;22;97395;-91
2024/03/04 09:00:41;;;;;;;35.78;25.05;;;;;;;20.76;39.40;99330.69;6183001;22;96858;-91
2024/03/04 09:03:07;;;;;;;36.20;25.95;;;;;;;20.08;40.02;99350.09;6185146;22;96794;-94
2024/03/04 09:05:33;;;;;;;36.90;25.67;;;;;;;19.08;41.74;99352.56;6157677;22;99201;-86
2024/03/04 09:08:05;;;;;;;36.42;25.63;;;;;;;19.21;41.82;99352.34;6181158;22;97780;-87
2024/03/04 09:10:30;;;;;;;32.45;26.00;;;;;;;19.72;41.16;99340.00;6205406;22;97500;-88
2024/03/04 09:12:56;;;;;;;35.10;24.85;;;;;;;19.94;40.85;99331.84;6177266;22;96993;-89
2024/03/04 09:15:23;;;;;;;35.65;25.23;;;;;;;21.07;39.21;99343.88;6178489;22;97258;-89
2024/03/04 09:17:49;;;;;;;35.55;24.52;;;;;;;21.86;37.04;99336.31;6179609;22;98435;-90
2024/03/04 09:20:15;;;;;;;37.30;25.05;;;;;;;20.79;38.79;99343.75;6205199;22;96675;-92
2024/03/04 09:22:40;;;;;;;31.33;21.40;;;;;;;20.69;38.41;99322.41;6136482;22;96868;-88
2024/03/04 09:25:09;;;;;;;31.52;22.98;;;;;;;20.46;39.06;99337.81;6121782;22;99458;-90
2024/03/04 09:27:36;;;;;;;36.08;23.30;;;;;;;21.11;38.53;99337.25;6121880;22;100973;-91
2024/03/04 09:30:04;;;;;;;34.13;24.33;;;;;;;20.63;38.99;99343.47;6121255;22;97297;-89
2024/03/04 09:32:30;;;;;;;32.95;23.67;;;;;;;21.59;37.74;99334.47;6123716;22;97163;-88
2024/03/04 09:34:57;;;;;;;36.20;23.33;;;;;;;21.25;37.73;99344.81;6096930;22;100642;-87
2024/03/04 09:37:23;;;;;;;36.70;23.92;;;;;;;20.76;38.86;99358.19;6121291;22;100522;-89
2024/03/04 09:39:48;;;;;;;31.67;23.90;;;;;;;21.68;37.93;99352.28;6146710;22;97533;-88
2024/03/04 09:42:15;;;;;;;35.67;23.95;;;;;;;23.14;35.86;99346.00;6173014;22;96681;-87
2024/03/04 09:44:41;;;;;;;32.47;21.80;;;;;;;22.59;36.39;99359.53;6169575;22;98719;-89
2024/03/04 09:47:08;;;;;;;33.90;21.95;;;;;;;23.19;35.52;99349.03;6148257;22;100418;-88
2024/03/04 09:49:34;;;;;;;31.83;23.15;;;;;;;23.65;34.51;99360.38;6123916;22;97272;-90
2024/03/04 09:52:02;;;;;;;46.42;32.22;;;;;;;24.42;34.12;99354.16;6119753;22;97499;-84
2024/03/04 09:54:29;;;;;;;38.38;34.17;;;;;;;23.51;34.17;99355.59;6146403;22;98274;-84
2024/03/04 09:56:55;;;;;;;39.40;35.25;;;;;;;23.21;35.05;99365.78;6173045;22;97460;-82
2024/03/04 09:59:22;;;;;;;38.20;34.00;;;;;;;23.18;34.88;99357.22;6120148;22;97174;-84
2024/03/04 10:01:48;;;;;;;40.00;32.30;;;;;;;23.37;34.88;99361.53;6122471;22;97197;-82
2024/03/04 10:04:15;;;;;;;39.67;32.97;;;;;;;23.02;35.33;99358.78;6121951;22;100306;-85
2024/03/04 10:06:40;;;;;;;42.65;33.60;;;;;;;22.81;35.35;99366.28;6148884;22;97958;-92
2024/03/04 10:09:09;;;;;;;33.55;30.00;;;;;;;22.18;36.15;99350.25;6125544;22;96632;-88
2024/03/04 10:11:42;;;;;;;37.28;33.38;;;;;;;22.08;36.80;99348.44;6151587;22;97117;-91
2024/03/04 10:14:08;;;;;;;34.78;31.45;;;;;;;22.06;36.83;99355.78;6123518;22;101024;-93
2024/03/04 10:16:35;;;;;;;40.08;35.75;;;;;;;21.64;37.20;99360.72;6098922;22;100442;-93
2024/03/04 10:19:03;;;;;;;37.58;33.38;;;;;;;21.40;37.92;99362.06;6124457;22;97500;-91
2024/03/04 10:21:32;;;;;;;38.78;32.17;;;;;;;20.46;39.37;99371.63;6099263;22;97467;-92
2024/03/04 10:24:08;;;;;;;36.00;32.20;;;;;;;20.05;39.85;99369.00;6153117;22;99263;-90
2024/03/04 10:26:45;;;;;;;39.10;34.45;;;;;;;19.59;40.54;99362.34;6179700;22;97283;-91
2024/03/04 10:29:15;;;;;;;42.95;34.08;;;;;;;19.71;40.44;99356.97;6155816;22;97173;-90
2024/03/04 10:31:54;;;;;;;37.90;31.88;;;;;;;19.52;41.52;99363.88;6128890;22;97270;-90
2024/03/04 10:34:20;;;;;;;40.05;32.72;;;;;;;19.46;41.49;99364.41;6126615;22;99072;-91
2024/03/04 10:36:47;;;;;;;38.97;32.08;;;;;;;19.15;41.73;99351.06;6127880;22;100883;-88
2024/03/04 10:39:15;;;;;;;37.38;33.40;;;;;;;18.76;42.62;99372.06;6188684;22;97610;-88
2024/03/04 10:41:43;;;;;;;39.90;33.72;;;;;;;18.67;42.86;99375.41;6136914;22;96786;-85
2024/03/04 10:44:09;;;;;;;42.03;34.95;;;;;;;18.07;44.14;99363.53;6178481;22;97873;-85
2024/03/04 10:46:37;;;;;;;42.17;34.42;;;;;;;18.02;44.51;99353.25;6180798;22;99271;-85
2024/03/04 10:49:03;;;;;;;43.78;33.47;;;;;;;18.46;44.14;99375.38;6134658;22;97127;-85
2024/03/04 10:51:29;;;;;;;38.65;33.63;;;;;;;17.99;44.40;99368.59;6160692;22;96926;-84
2024/03/04 10:53:54;;;;;;;39.67;32.85;;;;;;;18.10;44.59;99361.44;6159798;22;97568;-85
2024/03/04 10:56:20;;;;;;;38.70;32.25;;;;;;;17.78;45.05;99345.44;6134664;22;97756;-87
2024/03/04 10:58:47;;;;;;;36.17;32.28;;;;;;;18.01;44.78;99356.88;6135568;22;96840;-85
2024/03/04 11:01:17;;;;;;;35.25;30.38;;;;;;;18.40;44.93;99361.75;6160004;22;96873;-86
2024/03/04 11:03:48;;;;;;;39.70;33.90;;;;;;;17.99;44.88;99357.97;6158032;22;98031;-84
2024/03/04 11:06:19;;;;;;;37.90;30.52;;;;;;;17.82;45.49;99349.53;6177155;22;97239;-86
2024/03/04 11:08:55;;;;;;;37.72;31.33;;;;;;;17.70;45.67;99362.91;6126842;22;97526;-86
2024/03/04 11:11:29;;;;;;;37.83;29.83;;;;;;;18.01;45.64;99359.53;6176294;22;97249;-83
2024/03/04 11:14:04;;;;;;;42.33;32.35;;;;;;;18.31;44.84;99361.53;6204734;22;98786;-85
2024/03/04 11:16:46;;;;;;;40.42;31.63;;;;;;;18.01;45.40;99364.00;6176613;22;97714;-79